Aeroporto :
LOGIN :

Iscrizione | Disclaimer

   EN    FR    IT 

 










Sommario :    VFR   VFR Marginale   IFR   IFR Intensivo   IFR Molto Intensivo
Visibilità : 
Base nubi : 
>= 8 km
>= 3000ft
5 / 8 km
1000 / 3000 ft
1500m / 5 km
500 / 1000 ft
800 / 1500m
200 / 500 ft
< 800m
< 200 ft
Simboli :   Temporali  Nebbia  Neve Forte  Precipitazioni Forti  Vento > 20 kt
SIGMETs :   Varie  Temporali  Ghiacco  Turbolenza  Onda orograficha  Ceneri Vulcaniche






- Altitudine del aeroporto : 751 ft
- Codice IATA : ENC


LFSN - Nancy Essey

ULTIMO METAR :
  • 171200Z AUTO 30006KT 5000 BR SCT007 BKN100 03/02 Q1007

METARs OBSOLETI :
  • 171130Z AUTO 30004KT 260V330 4700 BR OVC008 02/02 Q1007
  • 171100Z AUTO 34003KT 280V020 8000 OVC007 02/02 Q1008
  • 171030Z AUTO 01004KT 330V040 6000 OVC006 02/01 Q1008
  • 171000Z AUTO VRB02KT 4400 BR OVC004 02/02 Q1008
  • 170930Z AUTO VRB01KT 4800 BR OVC005 01/01 Q1008

Previsioni scadute.



MetMap, La meteo Aeronautica in un colpo d'occhio ! - Copyright ORBIFLY Dicembre 2007 - Disclaimer

ORBIFLY MET'MAP TEAM :

Programmazione e sviluppo : Alexandra Zaïnal
Concezione e sviluppo : Baudouin d'Aumeries
Co-Programmazione e sviluppo : Marc-Olivier Méhu
Supporto tecnico e logistico : Manuel Goepfert
Aiuto per la traduzione : Arnaldo La Scala

Contatto : metmap@orbifly.com




FONTI E CREDITI :

   NOAA